sensor_id;sensor_type;location;lat;lon;timestamp;temperature;humidity
65864;SHT30;52639;51.180;20.460;2023-04-24T00:02:13;4.46;69.60
65864;SHT30;52639;51.180;20.460;2023-04-24T00:06:17;4.66;69.58
65864;SHT30;52639;51.180;20.460;2023-04-24T00:10:20;4.83;69.12
65864;SHT30;52639;51.180;20.460;2023-04-24T00:14:23;5.08;68.77
65864;SHT30;52639;51.180;20.460;2023-04-24T00:18:28;5.23;69.71
65864;SHT30;52639;51.180;20.460;2023-04-24T00:22:31;5.23;68.95
65864;SHT30;52639;51.180;20.460;2023-04-24T00:26:34;5.25;68.64
65864;SHT30;52639;51.180;20.460;2023-04-24T00:30:38;5.18;70.01
65864;SHT30;52639;51.180;20.460;2023-04-24T00:34:42;5.30;70.10
65864;SHT30;52639;51.180;20.460;2023-04-24T00:38:46;5.34;69.67
65864;SHT30;52639;51.180;20.460;2023-04-24T00:42:49;5.35;69.84
65864;SHT30;52639;51.180;20.460;2023-04-24T00:46:52;5.32;69.56
65864;SHT30;52639;51.180;20.460;2023-04-24T00:50:58;5.37;69.46
65864;SHT30;52639;51.180;20.460;2023-04-24T00:55:01;5.28;69.69
65864;SHT30;52639;51.180;20.460;2023-04-24T00:59:04;5.32;70.02
65864;SHT30;52639;51.180;20.460;2023-04-24T01:03:08;5.35;69.95
65864;SHT30;52639;51.180;20.460;2023-04-24T01:07:16;5.37;69.56
65864;SHT30;52639;51.180;20.460;2023-04-24T01:11:21;5.44;70.29
65864;SHT30;52639;51.180;20.460;2023-04-24T01:15:24;5.47;69.86
65864;SHT30;52639;51.180;20.460;2023-04-24T01:19:27;5.54;69.84
65864;SHT30;52639;51.180;20.460;2023-04-24T01:23:32;5.48;70.38
65864;SHT30;52639;51.180;20.460;2023-04-24T01:27:35;5.51;70.59
65864;SHT30;52639;51.180;20.460;2023-04-24T01:31:39;5.52;70.51
65864;SHT30;52639;51.180;20.460;2023-04-24T01:35:41;5.45;70.47
65864;SHT30;52639;51.180;20.460;2023-04-24T01:39:46;5.32;70.57
65864;SHT30;52639;51.180;20.460;2023-04-24T01:43:49;5.25;72.08
65864;SHT30;52639;51.180;20.460;2023-04-24T01:47:53;5.14;71.74
65864;SHT30;52639;51.180;20.460;2023-04-24T01:51:56;5.07;72.08
65864;SHT30;52639;51.180;20.460;2023-04-24T01:56:01;4.93;71.53
65864;SHT30;52639;51.180;20.460;2023-04-24T02:00:05;4.80;71.94
65864;SHT30;52639;51.180;20.460;2023-04-24T02:04:08;4.57;72.03
65864;SHT30;52639;51.180;20.460;2023-04-24T02:08:11;4.45;72.18
65864;SHT30;52639;51.180;20.460;2023-04-24T02:12:16;4.36;72.80
65864;SHT30;52639;51.180;20.460;2023-04-24T02:16:19;4.42;72.55
65864;SHT30;52639;51.180;20.460;2023-04-24T02:20:23;4.33;72.93
65864;SHT30;52639;51.180;20.460;2023-04-24T02:24:26;4.33;73.21
65864;SHT30;52639;51.180;20.460;2023-04-24T02:28:30;4.19;72.71
65864;SHT30;52639;51.180;20.460;2023-04-24T02:32:33;4.15;72.81
65864;SHT30;52639;51.180;20.460;2023-04-24T02:36:37;4.08;72.91
65864;SHT30;52639;51.180;20.460;2023-04-24T02:40:40;4.05;72.84
65864;SHT30;52639;51.180;20.460;2023-04-24T02:44:44;4.13;72.65
65864;SHT30;52639;51.180;20.460;2023-04-24T02:48:47;3.99;72.89
65864;SHT30;52639;51.180;20.460;2023-04-24T02:52:50;3.85;73.05
65864;SHT30;52639;51.180;20.460;2023-04-24T02:56:53;3.89;73.00
65864;SHT30;52639;51.180;20.460;2023-04-24T03:00:58;3.92;72.96
65864;SHT30;52639;51.180;20.460;2023-04-24T03:05:01;4.05;73.64
65864;SHT30;52639;51.180;20.460;2023-04-24T03:09:05;4.03;73.08
65864;SHT30;52639;51.180;20.460;2023-04-24T03:13:09;4.13;73.04
65864;SHT30;52639;51.180;20.460;2023-04-24T03:17:13;4.08;72.97
65864;SHT30;52639;51.180;20.460;2023-04-24T03:21:16;3.88;73.03
65864;SHT30;52639;51.180;20.460;2023-04-24T03:25:19;3.92;73.88
65864;SHT30;52639;51.180;20.460;2023-04-24T03:29:22;3.92;73.43
65864;SHT30;52639;51.180;20.460;2023-04-24T03:33:27;3.86;73.38
65864;SHT30;52639;51.180;20.460;2023-04-24T03:37:30;3.85;73.86
65864;SHT30;52639;51.180;20.460;2023-04-24T03:41:33;3.99;74.23
65864;SHT30;52639;51.180;20.460;2023-04-24T03:45:36;4.15;73.21
65864;SHT30;52639;51.180;20.460;2023-04-24T03:49:40;4.33;72.47
65864;SHT30;52639;51.180;20.460;2023-04-24T03:53:44;4.59;73.81
65864;SHT30;52639;51.180;20.460;2023-04-24T03:57:47;4.80;73.41
65864;SHT30;52639;51.180;20.460;2023-04-24T04:01:51;5.01;73.76
65864;SHT30;52639;51.180;20.460;2023-04-24T04:05:57;5.20;73.32
65864;SHT30;52639;51.180;20.460;2023-04-24T04:10:02;5.44;73.30
65864;SHT30;52639;51.180;20.460;2023-04-24T04:14:05;5.68;72.97
65864;SHT30;52639;51.180;20.460;2023-04-24T04:18:08;5.89;73.14
65864;SHT30;52639;51.180;20.460;2023-04-24T04:22:14;6.14;71.76
65864;SHT30;52639;51.180;20.460;2023-04-24T04:26:18;6.48;70.90
65864;SHT30;52639;51.180;20.460;2023-04-24T04:30:22;6.73;70.69
65864;SHT30;52639;51.180;20.460;2023-04-24T04:34:52;7.15;69.14
65864;SHT30;52639;51.180;20.460;2023-04-24T04:39:00;7.67;74.14
65864;SHT30;52639;51.180;20.460;2023-04-24T04:43:04;8.21;70.17
65864;SHT30;52639;51.180;20.460;2023-04-24T04:47:09;8.78;68.23
65864;SHT30;52639;51.180;20.460;2023-04-24T04:51:18;9.69;67.01
65864;SHT30;52639;51.180;20.460;2023-04-24T04:55:24;13.67;58.39
65864;SHT30;52639;51.180;20.460;2023-04-24T04:59:29;15.44;56.10
65864;SHT30;52639;51.180;20.460;2023-04-24T05:03:35;16.66;55.76
65864;SHT30;52639;51.180;20.460;2023-04-24T05:07:47;18.12;54.02
65864;SHT30;52639;51.180;20.460;2023-04-24T05:11:53;19.54;53.01
65864;SHT30;52639;51.180;20.460;2023-04-24T05:16:00;19.96;52.74
65864;SHT30;52639;51.180;20.460;2023-04-24T05:20:13;20.77;52.45
65864;SHT30;52639;51.180;20.460;2023-04-24T05:24:16;21.86;51.23
65864;SHT30;52639;51.180;20.460;2023-04-24T05:28:21;22.36;50.27
65864;SHT30;52639;51.180;20.460;2023-04-24T05:32:24;23.32;48.51
65864;SHT30;52639;51.180;20.460;2023-04-24T05:36:32;23.90;48.45
65864;SHT30;52639;51.180;20.460;2023-04-24T05:40:39;21.72;54.58
65864;SHT30;52639;51.180;20.460;2023-04-24T05:44:43;20.80;56.33
65864;SHT30;52639;51.180;20.460;2023-04-24T05:48:46;23.31;51.18
65864;SHT30;52639;51.180;20.460;2023-04-24T05:52:49;25.81;46.04
65864;SHT30;52639;51.180;20.460;2023-04-24T05:56:52;27.16;43.82
65864;SHT30;52639;51.180;20.460;2023-04-24T06:01:00;27.93;42.22
65864;SHT30;52639;51.180;20.460;2023-04-24T06:05:04;28.20;41.25
65864;SHT30;52639;51.180;20.460;2023-04-24T06:09:07;29.22;39.91
65864;SHT30;52639;51.180;20.460;2023-04-24T06:13:11;29.32;39.48
65864;SHT30;52639;51.180;20.460;2023-04-24T06:17:26;30.37;37.57
65864;SHT30;52639;51.180;20.460;2023-04-24T06:21:31;31.71;36.56
65864;SHT30;52639;51.180;20.460;2023-04-24T06:25:39;31.71;36.19
65864;SHT30;52639;51.180;20.460;2023-04-24T06:29:43;31.57;36.42
65864;SHT30;52639;51.180;20.460;2023-04-24T06:33:48;32.14;34.91
65864;SHT30;52639;51.180;20.460;2023-04-24T06:37:55;32.47;34.73
65864;SHT30;52639;51.180;20.460;2023-04-24T06:42:07;31.78;34.72
65864;SHT30;52639;51.180;20.460;2023-04-24T06:46:13;32.57;33.28
65864;SHT30;52639;51.180;20.460;2023-04-24T06:50:18;34.02;31.35
65864;SHT30;52639;51.180;20.460;2023-04-24T06:54:21;33.54;31.53
65864;SHT30;52639;51.180;20.460;2023-04-24T06:58:25;32.39;31.62
65864;SHT30;52639;51.180;20.460;2023-04-24T07:02:41;33.93;30.09
65864;SHT30;52639;51.180;20.460;2023-04-24T07:06:49;31.99;30.96
65864;SHT30;52639;51.180;20.460;2023-04-24T07:10:53;31.89;30.30
65864;SHT30;52639;51.180;20.460;2023-04-24T07:14:57;33.93;27.93
65864;SHT30;52639;51.180;20.460;2023-04-24T07:19:00;33.31;29.03
65864;SHT30;52639;51.180;20.460;2023-04-24T07:23:04;32.73;28.72
65864;SHT30;52639;51.180;20.460;2023-04-24T07:27:07;33.52;28.05
65864;SHT30;52639;51.180;20.460;2023-04-24T07:31:11;33.21;27.58
65864;SHT30;52639;51.180;20.460;2023-04-24T07:35:14;33.88;27.15
65864;SHT30;52639;51.180;20.460;2023-04-24T07:39:18;33.21;27.69
65864;SHT30;52639;51.180;20.460;2023-04-24T07:43:21;32.44;26.85
65864;SHT30;52639;51.180;20.460;2023-04-24T07:47:25;32.30;26.38
65864;SHT30;52639;51.180;20.460;2023-04-24T07:51:28;32.13;25.77
65864;SHT30;52639;51.180;20.460;2023-04-24T07:55:33;33.51;24.83
65864;SHT30;52639;51.180;20.460;2023-04-24T07:59:36;33.52;24.79
65864;SHT30;52639;51.180;20.460;2023-04-24T08:03:39;33.86;25.06
65864;SHT30;52639;51.180;20.460;2023-04-24T08:07:42;33.24;25.44
65864;SHT30;52639;51.180;20.460;2023-04-24T08:11:48;31.86;25.31
65864;SHT30;52639;51.180;20.460;2023-04-24T08:15:51;31.89;24.96
65864;SHT30;52639;51.180;20.460;2023-04-24T08:19:54;33.63;24.03
65864;SHT30;52639;51.180;20.460;2023-04-24T08:24:02;34.15;23.31
65864;SHT30;52639;51.180;20.460;2023-04-24T08:28:10;34.13;24.11
65864;SHT30;52639;51.180;20.460;2023-04-24T08:32:13;33.71;23.58
65864;SHT30;52639;51.180;20.460;2023-04-24T08:36:16;32.76;23.92
65864;SHT30;52639;51.180;20.460;2023-04-24T08:40:22;32.47;23.88
65864;SHT30;52639;51.180;20.460;2023-04-24T08:44:27;32.27;24.24
65864;SHT30;52639;51.180;20.460;2023-04-24T08:48:29;30.73;23.90
65864;SHT30;52639;51.180;20.460;2023-04-24T08:52:33;32.30;23.65
65864;SHT30;52639;51.180;20.460;2023-04-24T08:56:37;32.59;23.95
65864;SHT30;52639;51.180;20.460;2023-04-24T09:00:43;33.11;23.79
65864;SHT30;52639;51.180;20.460;2023-04-24T09:04:48;34.40;23.29
65864;SHT30;52639;51.180;20.460;2023-04-24T09:08:55;34.57;23.73
65864;SHT30;52639;51.180;20.460;2023-04-24T09:12:58;33.54;24.90
65864;SHT30;52639;51.180;20.460;2023-04-24T09:17:04;34.37;24.41
65864;SHT30;52639;51.180;20.460;2023-04-24T09:21:09;33.75;25.29
65864;SHT30;52639;51.180;20.460;2023-04-24T09:25:13;33.73;24.98
65864;SHT30;52639;51.180;20.460;2023-04-24T09:29:16;32.24;25.79
65864;SHT30;52639;51.180;20.460;2023-04-24T09:33:20;31.24;25.88
65864;SHT30;52639;51.180;20.460;2023-04-24T09:37:30;31.15;25.61
65864;SHT30;52639;51.180;20.460;2023-04-24T09:41:33;28.19;27.85
65864;SHT30;52639;51.180;20.460;2023-04-24T09:45:37;25.93;29.47
65864;SHT30;52639;51.180;20.460;2023-04-24T09:49:41;25.46;29.68
65864;SHT30;52639;51.180;20.460;2023-04-24T09:53:46;24.26;30.89
65864;SHT30;52639;51.180;20.460;2023-04-24T09:57:50;24.22;31.03
65864;SHT30;52639;51.180;20.460;2023-04-24T10:01:54;23.66;31.20
65864;SHT30;52639;51.180;20.460;2023-04-24T10:06:01;24.29;30.61
65864;SHT30;52639;51.180;20.460;2023-04-24T10:10:04;23.93;29.40
65864;SHT30;52639;51.180;20.460;2023-04-24T10:14:09;23.22;30.22
65864;SHT30;52639;51.180;20.460;2023-04-24T10:18:13;23.49;30.13
65864;SHT30;52639;51.180;20.460;2023-04-24T10:22:19;23.82;29.62
65864;SHT30;52639;51.180;20.460;2023-04-24T10:26:24;23.62;28.95
65864;SHT30;52639;51.180;20.460;2023-04-24T10:30:29;23.06;29.25
65864;SHT30;52639;51.180;20.460;2023-04-24T10:34:32;23.42;29.44
65864;SHT30;52639;51.180;20.460;2023-04-24T10:38:37;22.80;29.74
65864;SHT30;52639;51.180;20.460;2023-04-24T10:42:42;23.59;29.13
65864;SHT30;52639;51.180;20.460;2023-04-24T10:46:46;24.17;29.02
65864;SHT30;52639;51.180;20.460;2023-04-24T10:50:51;23.66;29.31
65864;SHT30;52639;51.180;20.460;2023-04-24T10:55:01;23.89;29.18
65864;SHT30;52639;51.180;20.460;2023-04-24T10:59:07;23.86;28.95
65864;SHT30;52639;51.180;20.460;2023-04-24T11:03:27;23.69;27.68
65864;SHT30;52639;51.180;20.460;2023-04-24T11:12:13;23.68;29.14
65864;SHT30;52639;51.180;20.460;2023-04-24T11:16:20;22.77;29.80
65864;SHT30;52639;51.180;20.460;2023-04-24T11:20:23;23.20;29.60
65864;SHT30;52639;51.180;20.460;2023-04-24T11:24:31;23.06;29.46
65864;SHT30;52639;51.180;20.460;2023-04-24T11:28:36;22.60;30.01
65864;SHT30;52639;51.180;20.460;2023-04-24T11:32:41;22.97;29.14
65864;SHT30;52639;51.180;20.460;2023-04-24T11:36:44;23.52;28.95
65864;SHT30;52639;51.180;20.460;2023-04-24T11:40:48;24.02;28.89
65864;SHT30;52639;51.180;20.460;2023-04-24T11:44:54;24.03;29.14
65864;SHT30;52639;51.180;20.460;2023-04-24T11:48:58;23.68;29.48
65864;SHT30;52639;51.180;20.460;2023-04-24T11:53:02;23.52;29.15
65864;SHT30;52639;51.180;20.460;2023-04-24T11:57:07;23.68;29.22
65864;SHT30;52639;51.180;20.460;2023-04-24T12:01:12;22.87;29.83
65864;SHT30;52639;51.180;20.460;2023-04-24T12:05:19;23.06;29.29
65864;SHT30;52639;51.180;20.460;2023-04-24T12:09:23;22.56;29.64
65864;SHT30;52639;51.180;20.460;2023-04-24T12:13:26;22.17;29.78
65864;SHT30;52639;51.180;20.460;2023-04-24T12:17:32;22.16;29.76
65864;SHT30;52639;51.180;20.460;2023-04-24T12:21:36;21.91;29.58
65864;SHT30;52639;51.180;20.460;2023-04-24T12:25:39;21.62;29.78
65864;SHT30;52639;51.180;20.460;2023-04-24T12:29:51;21.30;29.59
65864;SHT30;52639;51.180;20.460;2023-04-24T12:33:57;21.37;29.91
65864;SHT30;52639;51.180;20.460;2023-04-24T12:38:06;21.88;29.53
65864;SHT30;52639;51.180;20.460;2023-04-24T12:42:09;22.10;28.99
65864;SHT30;52639;51.180;20.460;2023-04-24T12:46:12;21.99;28.75
65864;SHT30;52639;51.180;20.460;2023-04-24T12:50:17;22.05;28.45
65864;SHT30;52639;51.180;20.460;2023-04-24T12:54:20;21.72;29.09
65864;SHT30;52639;51.180;20.460;2023-04-24T12:58:23;21.83;28.95
65864;SHT30;52639;51.180;20.460;2023-04-24T13:02:29;21.75;29.59
65864;SHT30;52639;51.180;20.460;2023-04-24T13:06:35;21.79;29.83
65864;SHT30;52639;51.180;20.460;2023-04-24T13:10:38;21.72;30.18
65864;SHT30;52639;51.180;20.460;2023-04-24T13:14:42;21.59;30.49
65864;SHT30;52639;51.180;20.460;2023-04-24T13:18:45;21.57;30.57
65864;SHT30;52639;51.180;20.460;2023-04-24T13:22:52;21.69;30.28
65864;SHT30;52639;51.180;20.460;2023-04-24T13:26:55;21.45;30.33
65864;SHT30;52639;51.180;20.460;2023-04-24T13:30:59;21.35;30.36
65864;SHT30;52639;51.180;20.460;2023-04-24T13:35:02;21.21;30.34
65864;SHT30;52639;51.180;20.460;2023-04-24T13:39:06;21.03;30.83
65864;SHT30;52639;51.180;20.460;2023-04-24T13:43:10;21.00;30.92
65864;SHT30;52639;51.180;20.460;2023-04-24T13:47:13;21.14;30.66
65864;SHT30;52639;51.180;20.460;2023-04-24T13:51:17;21.23;30.77
65864;SHT30;52639;51.180;20.460;2023-04-24T13:55:25;21.27;31.00
65864;SHT30;52639;51.180;20.460;2023-04-24T13:59:47;20.93;31.44
65864;SHT30;52639;51.180;20.460;2023-04-24T14:03:50;20.72;31.71
65864;SHT30;52639;51.180;20.460;2023-04-24T14:07:53;20.53;32.03
65864;SHT30;52639;51.180;20.460;2023-04-24T14:11:58;20.52;32.04
65864;SHT30;52639;51.180;20.460;2023-04-24T14:16:02;20.56;32.11
65864;SHT30;52639;51.180;20.460;2023-04-24T14:20:07;20.46;32.28
65864;SHT30;52639;51.180;20.460;2023-04-24T14:24:11;20.18;32.13
65864;SHT30;52639;51.180;20.460;2023-04-24T14:28:16;19.95;32.47
65864;SHT30;52639;51.180;20.460;2023-04-24T14:32:19;19.86;32.71
65864;SHT30;52639;51.180;20.460;2023-04-24T14:36:24;19.78;32.96
65864;SHT30;52639;51.180;20.460;2023-04-24T14:40:27;19.66;33.19
65864;SHT30;52639;51.180;20.460;2023-04-24T14:44:32;19.69;33.36
65864;SHT30;52639;51.180;20.460;2023-04-24T14:48:35;19.83;33.27
65864;SHT30;52639;51.180;20.460;2023-04-24T14:52:38;20.13;33.01
65864;SHT30;52639;51.180;20.460;2023-04-24T14:56:41;20.28;32.74
65864;SHT30;52639;51.180;20.460;2023-04-24T15:00:47;20.37;32.63
65864;SHT30;52639;51.180;20.460;2023-04-24T15:04:54;20.59;32.52
65864;SHT30;52639;51.180;20.460;2023-04-24T15:08:57;20.90;32.35
65864;SHT30;52639;51.180;20.460;2023-04-24T15:13:00;21.17;32.13
65864;SHT30;52639;51.180;20.460;2023-04-24T15:17:05;21.49;31.73
65864;SHT30;52639;51.180;20.460;2023-04-24T15:21:09;21.55;31.95
65864;SHT30;52639;51.180;20.460;2023-04-24T15:25:14;21.63;32.03
65864;SHT30;52639;51.180;20.460;2023-04-24T15:29:17;21.20;32.66
65864;SHT30;52639;51.180;20.460;2023-04-24T15:33:23;20.72;33.26
65864;SHT30;52639;51.180;20.460;2023-04-24T15:37:28;20.50;33.67
65864;SHT30;52639;51.180;20.460;2023-04-24T15:41:31;20.30;34.16
65864;SHT30;52639;51.180;20.460;2023-04-24T15:45:37;20.19;34.39
65864;SHT30;52639;51.180;20.460;2023-04-24T15:49:51;19.89;34.92
65864;SHT30;52639;51.180;20.460;2023-04-24T15:53:57;19.55;35.35
65864;SHT30;52639;51.180;20.460;2023-04-24T15:58:01;19.34;35.91
65864;SHT30;52639;51.180;20.460;2023-04-24T16:02:05;19.25;36.28
65864;SHT30;52639;51.180;20.460;2023-04-24T16:06:11;19.11;36.63
65864;SHT30;52639;51.180;20.460;2023-04-24T16:10:17;19.08;37.04
65864;SHT30;52639;51.180;20.460;2023-04-24T16:14:24;18.86;37.02
65864;SHT30;52639;51.180;20.460;2023-04-24T16:18:42;18.69;38.24
65864;SHT30;52639;51.180;20.460;2023-04-24T16:22:47;18.46;37.49
65864;SHT30;52639;51.180;20.460;2023-04-24T16:27:12;18.45;37.52
65864;SHT30;52639;51.180;20.460;2023-04-24T16:31:19;18.30;38.08
65864;SHT30;52639;51.180;20.460;2023-04-24T16:35:26;18.12;39.53
65864;SHT30;52639;51.180;20.460;2023-04-24T16:39:36;17.88;40.79
65864;SHT30;52639;51.180;20.460;2023-04-24T16:43:39;17.67;41.42
65864;SHT30;52639;51.180;20.460;2023-04-24T16:48:06;17.67;41.90
65864;SHT30;52639;51.180;20.460;2023-04-24T16:52:14;17.48;41.86
65864;SHT30;52639;51.180;20.460;2023-04-24T16:56:23;17.24;41.94
65864;SHT30;52639;51.180;20.460;2023-04-24T17:00:35;17.09;42.18
65864;SHT30;52639;51.180;20.460;2023-04-24T17:04:56;17.10;42.34
65864;SHT30;52639;51.180;20.460;2023-04-24T17:09:12;17.03;42.65
65864;SHT30;52639;51.180;20.460;2023-04-24T17:13:23;16.94;43.29
65864;SHT30;52639;51.180;20.460;2023-04-24T17:17:49;16.84;43.27
65864;SHT30;52639;51.180;20.460;2023-04-24T17:22:11;16.62;44.02
65864;SHT30;52639;51.180;20.460;2023-04-24T17:26:30;16.48;44.15
65864;SHT30;52639;51.180;20.460;2023-04-24T17:30:39;16.32;44.71
65864;SHT30;52639;51.180;20.460;2023-04-24T17:34:47;16.19;45.48
65864;SHT30;52639;51.180;20.460;2023-04-24T17:38:54;16.22;46.57
65864;SHT30;52639;51.180;20.460;2023-04-24T17:43:22;16.12;47.85
65864;SHT30;52639;51.180;20.460;2023-04-24T17:47:33;15.98;48.42
65864;SHT30;52639;51.180;20.460;2023-04-24T17:51:38;15.71;48.63
65864;SHT30;52639;51.180;20.460;2023-04-24T17:55:44;15.55;49.17
65864;SHT30;52639;51.180;20.460;2023-04-24T17:59:49;15.43;49.11
65864;SHT30;52639;51.180;20.460;2023-04-24T18:04:05;15.38;49.52
65864;SHT30;52639;51.180;20.460;2023-04-24T18:08:10;15.31;50.14
65864;SHT30;52639;51.180;20.460;2023-04-24T18:12:25;15.14;50.81
65864;SHT30;52639;51.180;20.460;2023-04-24T18:16:35;14.93;51.33
65864;SHT30;52639;51.180;20.460;2023-04-24T18:20:45;14.75;50.85
65864;SHT30;52639;51.180;20.460;2023-04-24T18:24:53;14.59;51.01
65864;SHT30;52639;51.180;20.460;2023-04-24T18:29:00;14.48;51.44
65864;SHT30;52639;51.180;20.460;2023-04-24T18:33:12;14.39;55.13
65864;SHT30;52639;51.180;20.460;2023-04-24T18:37:23;14.32;50.97
65864;SHT30;52639;51.180;20.460;2023-04-24T18:41:34;14.07;51.56
65864;SHT30;52639;51.180;20.460;2023-04-24T18:45:42;13.78;52.09
65864;SHT30;52639;51.180;20.460;2023-04-24T18:49:59;13.67;52.42
65864;SHT30;52639;51.180;20.460;2023-04-24T18:54:23;13.30;52.91
65864;SHT30;52639;51.180;20.460;2023-04-24T18:58:31;13.00;53.76
65864;SHT30;52639;51.180;20.460;2023-04-24T19:02:39;12.99;53.79
65864;SHT30;52639;51.180;20.460;2023-04-24T19:06:58;12.88;54.03
65864;SHT30;52639;51.180;20.460;2023-04-24T19:11:04;12.80;54.28
65864;SHT30;52639;51.180;20.460;2023-04-24T19:15:10;12.99;54.02
65864;SHT30;52639;51.180;20.460;2023-04-24T19:19:13;13.19;53.74
65864;SHT30;52639;51.180;20.460;2023-04-24T19:23:25;13.20;54.04
65864;SHT30;52639;51.180;20.460;2023-04-24T19:27:41;13.23;53.91
65864;SHT30;52639;51.180;20.460;2023-04-24T19:31:52;13.23;54.54
65864;SHT30;52639;51.180;20.460;2023-04-24T19:36:02;13.10;55.07
65864;SHT30;52639;51.180;20.460;2023-04-24T19:40:34;12.83;55.69
65864;SHT30;52639;51.180;20.460;2023-04-24T19:45:10;12.58;55.97
65864;SHT30;52639;51.180;20.460;2023-04-24T19:49:34;12.21;57.23
65864;SHT30;52639;51.180;20.460;2023-04-24T19:53:41;12.24;56.95
65864;SHT30;52639;51.180;20.460;2023-04-24T19:57:47;11.93;57.38
65864;SHT30;52639;51.180;20.460;2023-04-24T20:02:01;11.73;57.96
65864;SHT30;52639;51.180;20.460;2023-04-24T20:06:17;11.47;58.36
65864;SHT30;52639;51.180;20.460;2023-04-24T20:10:33;11.27;58.66
65864;SHT30;52639;51.180;20.460;2023-04-24T20:14:43;11.06;59.65
65864;SHT30;52639;51.180;20.460;2023-04-24T20:18:52;10.86;59.80
65864;SHT30;52639;51.180;20.460;2023-04-24T20:22:59;11.00;59.92
65864;SHT30;52639;51.180;20.460;2023-04-24T20:27:05;11.22;59.62
65864;SHT30;52639;51.180;20.460;2023-04-24T20:31:19;11.49;59.49
65864;SHT30;52639;51.180;20.460;2023-04-24T20:35:46;11.49;59.50
65864;SHT30;52639;51.180;20.460;2023-04-24T20:39:51;11.22;59.97
65864;SHT30;52639;51.180;20.460;2023-04-24T20:43:56;10.96;60.98
65864;SHT30;52639;51.180;20.460;2023-04-24T20:48:00;10.95;61.27
65864;SHT30;52639;51.180;20.460;2023-04-24T20:57:14;11.54;60.43
65864;SHT30;52639;51.180;20.460;2023-04-24T21:01:59;11.73;60.33
65864;SHT30;52639;51.180;20.460;2023-04-24T21:06:04;11.77;61.47
65864;SHT30;52639;51.180;20.460;2023-04-24T21:10:13;11.88;61.53
65864;SHT30;52639;51.180;20.460;2023-04-24T21:14:19;11.88;60.89
65864;SHT30;52639;51.180;20.460;2023-04-24T21:18:22;11.90;61.33
65864;SHT30;52639;51.180;20.460;2023-04-24T21:22:28;11.88;61.73
65864;SHT30;52639;51.180;20.460;2023-04-24T21:26:31;11.91;62.04
65864;SHT30;52639;51.180;20.460;2023-04-24T21:30:39;12.01;62.26
65864;SHT30;52639;51.180;20.460;2023-04-24T21:34:42;12.11;62.93
65864;SHT30;52639;51.180;20.460;2023-04-24T21:38:48;12.13;63.92
65864;SHT30;52639;51.180;20.460;2023-04-24T21:42:52;12.10;63.04
65864;SHT30;52639;51.180;20.460;2023-04-24T21:46:57;12.11;63.11
65864;SHT30;52639;51.180;20.460;2023-04-24T21:51:03;12.22;62.77
65864;SHT30;52639;51.180;20.460;2023-04-24T21:55:08;12.20;63.56
65864;SHT30;52639;51.180;20.460;2023-04-24T21:59:12;12.10;63.96
65864;SHT30;52639;51.180;20.460;2023-04-24T22:03:17;11.85;64.43
65864;SHT30;52639;51.180;20.460;2023-04-24T22:07:23;11.61;65.26
65864;SHT30;52639;51.180;20.460;2023-04-24T22:11:26;11.57;66.00
65864;SHT30;52639;51.180;20.460;2023-04-24T22:15:30;11.47;65.64
65864;SHT30;52639;51.180;20.460;2023-04-24T22:19:37;11.44;65.53
65864;SHT30;52639;51.180;20.460;2023-04-24T22:23:45;11.36;67.30
65864;SHT30;52639;51.180;20.460;2023-04-24T22:27:50;11.24;66.66
65864;SHT30;52639;51.180;20.460;2023-04-24T22:31:54;11.20;67.64
65864;SHT30;52639;51.180;20.460;2023-04-24T22:35:59;11.09;66.64
65864;SHT30;52639;51.180;20.460;2023-04-24T22:40:04;11.12;66.61
65864;SHT30;52639;51.180;20.460;2023-04-24T22:44:09;11.18;66.61
65864;SHT30;52639;51.180;20.460;2023-04-24T22:48:14;11.09;66.72
65864;SHT30;52639;51.180;20.460;2023-04-24T22:52:20;10.99;67.02
65864;SHT30;52639;51.180;20.460;2023-04-24T22:56:25;10.96;67.27
65864;SHT30;52639;51.180;20.460;2023-04-24T23:00:28;11.00;67.32
65864;SHT30;52639;51.180;20.460;2023-04-24T23:04:32;11.10;67.59
65864;SHT30;52639;51.180;20.460;2023-04-24T23:08:37;11.13;67.39
65864;SHT30;52639;51.180;20.460;2023-04-24T23:12:42;11.15;67.38
65864;SHT30;52639;51.180;20.460;2023-04-24T23:16:47;11.18;67.57
65864;SHT30;52639;51.180;20.460;2023-04-24T23:20:50;11.46;67.75
65864;SHT30;52639;51.180;20.460;2023-04-24T23:24:55;11.42;67.44
65864;SHT30;52639;51.180;20.460;2023-04-24T23:29:00;11.44;67.72
65864;SHT30;52639;51.180;20.460;2023-04-24T23:33:06;11.50;67.72
65864;SHT30;52639;51.180;20.460;2023-04-24T23:37:10;11.40;67.87
65864;SHT30;52639;51.180;20.460;2023-04-24T23:41:15;11.05;68.68
65864;SHT30;52639;51.180;20.460;2023-04-24T23:45:18;10.83;69.54
65864;SHT30;52639;51.180;20.460;2023-04-24T23:49:22;10.59;70.90
65864;SHT30;52639;51.180;20.460;2023-04-24T23:53:25;10.52;70.81
65864;SHT30;52639;51.180;20.460;2023-04-24T23:57:30;10.49;70.43
